Ana Sayfa
METAR-TAF:

METAR-TAF

Havaalanları :

Ujgorod, Ukrayna

Enlem: 48-38-05N, Boylam: 022-15-53E, yükseklik: 117 m

Güncel hava durumu gözlemi

Rapor saat 09:00 UTC de 1 saat ve 2 dakika önce yapıldı.
Rüzgar değişken yönden 2 kt
Sıcaklık 15°C
Nem 36%
Basınç 1016 hPa
Görüş mesafesi 10 km veya daha fazla

METAR: UKLU 280900Z VRB01MPS 9999 NSC 15/00 Q1016 R10/090070 NOSIG

Saat: 12:02 (10:02 UTC)

Tahmin

Rapor saat 08:03 UTC de 1 saat ve 59 dakika önce yapıldı.
Ayın 28'si saat 09 UTC'den ayın 28'si saat 18 UTC'ye kadar geçerli Tahmin
Rüzgar değişken yönden 2 kt
Görüş mesafesi 10 km veya daha fazla

TAF: UKLU 280803Z 2809/2818 VRB01MPS 9999 NSC

4.000'den fazla havaalanı için hava durumu gözlemleri ve tahminleri (METAR ve TAF raporları).

Kullanılabilir istasyonlar harita üzerinde sarı ve kırmızı noktalarla gösterilir.

İstasyonun adını görmek için fareyi noktanın üzerinde gezdirin.

Sonrasında hava gözlem ve tahminlerini görmek için tıklayın.

Haritayı değiştirmek için: yaklaştırmak için siyah artı işaretli yeşil düğmeye ve uzaklaştırmak için de eksi işaretli düğmeye hızla tıklayın; bitişik haritalar için yeşil okları kullanın.


METAR-TAF: